EDDN Airport Information

Runway Information
Runway 10 Length 8858 ft width 148 ft
Elevation 1022 ft Threshold 0 ft Heading 99
Runway 28 Length 8858 ft Width 148 ft
Elevation 1046 ft Threshold 0 ft Heading 279
Airport Frequencies
Type AFIS Name MUNCHEN IN Frequency 120.65 MHZ
Type ATIS Name ATIS Frequency 123.075 MHZ
Type DIR Name DIR Frequency 119.475 MHZ
Type GND Name GND Frequency 118.1 MHZ
Type RDR Name MUNCHEN RA Frequency 118.975 MHZ
Type TWR Name TWR Frequency 118.3 MHZ
Airport Navaids
Type DME Name Nurnberg Frequency 113100 KHZ
Type NDB Name Rothenbach Frequency 415 KHZ
Airport Weather Information & NOTAM
ADDS - METARS form results

(1629 UTC 26 February 2021)
Data provider http://aviationweather.gov/metar/data/
 
METAR text: EDDN 261620Z 32012KT 9999 BKN033 09/05 Q1029 TEMPO BKN008
Conditions at: EDDN (NUERNBERG , DE) observed 1620 UTC 26 February 2021
Temperature: 9.0°C (48°F)
Dewpoint: 5.0°C (41°F) [RH = 76%]
Pressure (altimeter): 30.38 inches Hg (1029.0 mb)
Winds: from the NW (320 degrees) at 14 MPH (12 knots; 6.2 m/s)
Visibility: 6 or more miles (10+ km)
Ceiling: 3300 feet AGL
Clouds: broken clouds at 3300 feet AGL
Weather: no significant weather observed at this time

METAR text: EDDN 261550Z 32016KT 9999 BKN035 10/06 Q1028 TEMPO BKN012
Conditions at: EDDN (NUERNBERG , DE) observed 1550 UTC 26 February 2021
Temperature: 10.0°C (50°F)
Dewpoint: 6.0°C (43°F) [RH = 76%]
Pressure (altimeter): 30.35 inches Hg (1028.0 mb)
Winds: from the NW (320 degrees) at 18 MPH (16 knots; 8.2 m/s)
Visibility: 6 or more miles (10+ km)
Ceiling: 3500 feet AGL
Clouds: broken clouds at 3500 feet AGL
Weather: no significant weather observed at this time

Forecast for: AMD
Text: TAF AMD EDDN 261528Z 2615/2712 30008KT CAVOK
Forecast period: 1500 UTC 26 February 2021 to 0100 UTC 27 February 2021
Forecast type: FROM: standard forecast or significant change
Winds: from the WNW (300 degrees) at 9 MPH (8 knots; 4.1 m/s)
Visibility: 6 or more miles (10+ km)
Ceiling: unknown
Clouds: missing
Weather: NSW  (no significant weather)
Text: TEMPO 2616/2619 BKN008
Forecast period: 1600 to 1900 UTC 26 February 2021
Forecast type: TEMPORARY: The following changes expected for less than half the time period
Visibility: missing
Ceiling: 800 feet AGL
Clouds: broken clouds at 800 feet AGL
Weather: no significant weather forecast for this period
Text: BECMG 2701/2704 36005KT
Forecast period: 0100 to 1200 UTC 27 February 2021
Forecast type: BECOMING: Conditions expected to become as follows by 0400 UTC 27 February 2021
Winds: from the N (360 degrees) at 6 MPH (5 knots; 2.6 m/s)
Visibility: 6 or more miles (10+ km)
Ceiling: unknown
Clouds: missing
Weather: NSW  (no significant weather)